createdAt,value
2023-03-16T00:06:48.154Z,-1.33
2023-03-16T00:14:06.367Z,-1.38
2023-03-16T00:21:24.551Z,-1.39
2023-03-16T00:28:44.441Z,-1.42
2023-03-16T00:36:08.601Z,-1.43
2023-03-16T00:43:28.326Z,-1.43
2023-03-16T00:50:48.743Z,-1.36
2023-03-16T00:58:06.956Z,-1.35
2023-03-16T01:05:25.137Z,-1.55
2023-03-16T01:12:46.199Z,-1.60
2023-03-16T01:20:08.228Z,-1.65
2023-03-16T01:27:26.397Z,-1.66
2023-03-16T01:34:46.136Z,-1.72
2023-03-16T01:42:05.346Z,-1.80
2023-03-16T01:49:26.108Z,-1.85
2023-03-16T01:56:52.394Z,-1.93
2023-03-16T02:04:23.220Z,-1.91
2023-03-16T02:11:44.071Z,-1.93
2023-03-16T02:19:12.163Z,-1.85
2023-03-16T02:26:36.243Z,-1.98
2023-03-16T02:33:58.050Z,-2.03
2023-03-16T02:41:18.713Z,-2.06
2023-03-16T03:14:58.200Z,-2.17
2023-03-16T03:50:56.643Z,-2.24
2023-03-16T03:58:33.882Z,-2.27
2023-03-16T04:05:57.704Z,-2.26
2023-03-16T04:13:16.146Z,-2.29
2023-03-16T04:20:34.580Z,-2.29
2023-03-16T04:27:54.738Z,-2.33
2023-03-16T04:35:17.879Z,-2.30
2023-03-16T04:42:40.607Z,-2.32
2023-03-16T04:50:04.756Z,-2.31
2023-03-16T04:57:23.563Z,-2.35
2023-03-16T05:04:44.666Z,-2.35
2023-03-16T05:12:05.557Z,-2.31
2023-03-16T05:19:24.370Z,-2.31
2023-03-16T05:26:42.628Z,-2.23
2023-03-16T05:34:05.550Z,-2.08
2023-03-16T05:41:24.367Z,-2.04
2023-03-16T05:48:57.864Z,-1.86
2023-03-16T05:56:17.628Z,-1.67
2023-03-16T06:03:38.591Z,-1.42
2023-03-16T06:10:59.940Z,-0.46
2023-03-16T06:18:19.661Z,0.84
2023-03-16T06:25:40.610Z,1.87
2023-03-16T06:33:00.448Z,2.16
2023-03-16T06:40:21.082Z,2.46
2023-03-16T06:47:39.428Z,2.88
2023-03-16T06:54:58.639Z,2.88
2023-03-16T07:02:20.357Z,3.70
2023-03-16T07:09:41.566Z,3.94
2023-03-16T07:17:00.493Z,3.97
2023-03-16T07:24:20.941Z,4.41
2023-03-16T07:31:39.413Z,4.06
2023-03-16T07:39:06.901Z,4.53
2023-03-16T07:46:27.942Z,4.71
2023-03-16T07:53:46.340Z,5.74
2023-03-16T08:01:11.008Z,6.12
2023-03-16T08:08:31.683Z,6.11
2023-03-16T08:15:55.987Z,6.18
2023-03-16T08:23:20.029Z,7.75
2023-03-16T08:30:45.958Z,7.83
2023-03-16T08:38:32.345Z,7.59
2023-03-16T08:45:56.047Z,8.83
2023-03-16T08:53:18.966Z,9.21
2023-03-16T09:00:37.653Z,10.32
2023-03-16T09:07:57.196Z,9.84
2023-03-16T09:15:15.506Z,10.87
2023-03-16T09:22:33.993Z,10.43
2023-03-16T09:29:58.876Z,10.33
2023-03-16T09:37:17.164Z,9.94
2023-03-16T09:44:41.103Z,11.06
2023-03-16T09:52:07.826Z,11.46
2023-03-16T09:59:30.007Z,10.62
2023-03-16T10:06:55.645Z,10.32
2023-03-16T10:14:20.261Z,11.57
2023-03-16T10:21:41.399Z,12.57
2023-03-16T10:29:01.720Z,11.82
2023-03-16T10:36:26.882Z,11.89
2023-03-16T10:43:45.168Z,10.17
2023-03-16T10:51:05.762Z,11.37
2023-03-16T10:58:27.254Z,10.99
2023-03-16T11:05:47.356Z,10.33
2023-03-16T11:13:12.705Z,10.64
2023-03-16T11:20:35.116Z,10.98
2023-03-16T11:27:56.735Z,10.37
2023-03-16T11:35:17.768Z,10.31
2023-03-16T11:42:40.196Z,12.29
2023-03-16T11:50:01.649Z,12.60
2023-03-16T11:57:32.846Z,11.78
2023-03-16T12:05:01.730Z,11.28
2023-03-16T12:12:30.812Z,9.88
2023-03-16T12:19:52.997Z,10.17
2023-03-16T12:27:17.783Z,11.71
2023-03-16T12:34:41.108Z,11.70
2023-03-16T12:42:08.513Z,11.92
2023-03-16T12:49:28.886Z,10.94
2023-03-16T12:56:48.209Z,11.05
2023-03-16T13:04:12.655Z,11.22
2023-03-16T13:11:45.816Z,10.85
2023-03-16T13:19:18.972Z,11.35
2023-03-16T13:26:42.156Z,10.51
2023-03-16T13:34:02.894Z,10.14
2023-03-16T13:41:21.235Z,9.99
2023-03-16T13:48:42.414Z,10.41
2023-03-16T13:56:02.276Z,10.54
2023-03-16T14:03:22.475Z,10.10
2023-03-16T14:10:43.784Z,9.47
2023-03-16T14:18:14.613Z,10.04
2023-03-16T14:25:34.648Z,9.95
2023-03-16T14:32:59.881Z,9.89
2023-03-16T14:40:27.343Z,9.60
2023-03-16T14:47:46.862Z,9.64
2023-03-16T14:55:19.397Z,9.30
2023-03-16T15:02:37.949Z,9.09
2023-03-16T15:09:58.404Z,8.84
2023-03-16T15:17:18.140Z,8.91
2023-03-16T15:24:36.574Z,8.59
2023-03-16T15:31:55.018Z,8.55
2023-03-16T15:39:21.664Z,8.41
2023-03-16T15:46:40.179Z,8.43
2023-03-16T15:54:00.623Z,7.98
2023-03-16T16:01:24.261Z,7.92
2023-03-16T16:08:42.556Z,7.97
2023-03-16T16:16:01.490Z,7.87
2023-03-16T16:23:21.217Z,8.35
2023-03-16T16:30:39.981Z,7.44
2023-03-16T16:37:58.297Z,6.88
2023-03-16T16:45:20.916Z,6.60
2023-03-16T16:52:39.029Z,6.28
2023-03-16T16:59:58.672Z,5.87
2023-03-16T17:07:18.439Z,5.63
2023-03-16T17:14:37.106Z,7.06
2023-03-16T17:21:57.411Z,7.21
2023-03-16T17:29:21.163Z,6.18
2023-03-16T17:36:39.140Z,5.55
2023-03-16T17:43:59.246Z,5.13
2023-03-16T17:51:19.421Z,4.81
2023-03-16T17:58:38.330Z,4.40
2023-03-16T18:05:56.936Z,4.10
2023-03-16T18:13:20.907Z,4.00
2023-03-16T18:20:39.150Z,4.02
2023-03-16T18:27:58.141Z,3.88
2023-03-16T18:35:19.536Z,3.73
2023-03-16T18:42:38.438Z,3.59
2023-03-16T18:50:00.341Z,3.46
2023-03-16T18:57:22.484Z,3.57
2023-03-16T19:04:40.685Z,3.40
2023-03-16T19:12:00.293Z,3.38
2023-03-16T19:19:22.285Z,3.50
2023-03-16T19:26:40.936Z,3.51
2023-03-16T19:33:59.932Z,3.41
2023-03-16T19:41:27.186Z,3.12
2023-03-16T19:48:47.811Z,3.00
2023-03-16T19:56:07.365Z,2.90
2023-03-16T20:03:27.659Z,2.63
2023-03-16T20:10:47.347Z,2.54
2023-03-16T20:18:07.203Z,2.38
2023-03-16T20:25:32.376Z,2.46
2023-03-16T20:32:51.515Z,2.24
2023-03-16T20:40:10.517Z,1.98
2023-03-16T20:47:30.122Z,1.83
2023-03-16T20:54:48.529Z,1.76
2023-03-16T21:02:21.006Z,1.56
2023-03-16T21:09:42.122Z,1.38
2023-03-16T21:17:03.459Z,1.20
2023-03-16T21:24:22.025Z,1.06
2023-03-16T21:31:42.021Z,0.97
2023-03-16T21:39:00.343Z,0.83
2023-03-16T21:46:20.028Z,0.71
2023-03-16T21:53:40.522Z,0.56
2023-03-16T22:00:59.406Z,0.50
2023-03-16T22:08:19.855Z,0.39
2023-03-16T22:15:40.026Z,0.30
2023-03-16T22:22:58.368Z,0.30
2023-03-16T22:30:18.862Z,0.26
2023-03-16T22:37:38.372Z,0.19
2023-03-16T22:44:56.578Z,0.23
2023-03-16T22:52:15.098Z,0.26
2023-03-16T22:59:35.749Z,0.28
2023-03-16T23:06:54.866Z,0.16
2023-03-16T23:14:14.345Z,0.05
2023-03-16T23:21:34.134Z,-0.05
2023-03-16T23:28:52.920Z,-0.04
2023-03-16T23:36:15.529Z,-0.06
2023-03-16T23:43:35.507Z,-0.09
2023-03-16T23:50:55.536Z,-0.27
2023-03-16T23:58:16.113Z,-0.52
